sensor_id;sensor_type;location;lat;lon;timestamp;P1;durP1;ratioP1;P2;durP2;ratioP2
6255;SDS011;3161;48.794;9.784;2022-11-20T00:01:23;6.60;;;4.23;;
6255;SDS011;3161;48.794;9.784;2022-11-20T00:03:52;5.30;;;4.17;;
6255;SDS011;3161;48.794;9.784;2022-11-20T00:06:21;5.87;;;4.07;;
6255;SDS011;3161;48.794;9.784;2022-11-20T00:08:49;5.43;;;4.27;;
6255;SDS011;3161;48.794;9.784;2022-11-20T00:11:24;5.07;;;4.20;;
6255;SDS011;3161;48.794;9.784;2022-11-20T00:13:48;5.03;;;4.43;;
6255;SDS011;3161;48.794;9.784;2022-11-20T00:16:19;5.73;;;4.80;;
6255;SDS011;3161;48.794;9.784;2022-11-20T00:18:50;5.23;;;4.10;;
6255;SDS011;3161;48.794;9.784;2022-11-20T00:21:22;5.40;;;4.30;;
6255;SDS011;3161;48.794;9.784;2022-11-20T00:23:52;6.17;;;4.60;;
6255;SDS011;3161;48.794;9.784;2022-11-20T00:26:22;5.67;;;4.43;;
6255;SDS011;3161;48.794;9.784;2022-11-20T00:28:52;4.63;;;4.07;;
6255;SDS011;3161;48.794;9.784;2022-11-20T00:31:22;8.13;;;4.50;;
6255;SDS011;3161;48.794;9.784;2022-11-20T00:33:50;4.33;;;3.93;;
6255;SDS011;3161;48.794;9.784;2022-11-20T00:36:19;6.40;;;4.33;;
6255;SDS011;3161;48.794;9.784;2022-11-20T00:38:51;6.53;;;4.40;;
6255;SDS011;3161;48.794;9.784;2022-11-20T00:41:20;4.83;;;4.17;;
6255;SDS011;3161;48.794;9.784;2022-11-20T00:43:49;7.37;;;4.83;;
6255;SDS011;3161;48.794;9.784;2022-11-20T00:46:19;5.63;;;4.37;;
6255;SDS011;3161;48.794;9.784;2022-11-20T00:48:49;4.67;;;4.27;;
6255;SDS011;3161;48.794;9.784;2022-11-20T00:51:17;7.97;;;4.60;;
6255;SDS011;3161;48.794;9.784;2022-11-20T00:53:46;5.47;;;4.67;;
6255;SDS011;3161;48.794;9.784;2022-11-20T00:56:16;4.80;;;4.10;;
6255;SDS011;3161;48.794;9.784;2022-11-20T00:58:45;7.50;;;4.57;;
6255;SDS011;3161;48.794;9.784;2022-11-20T01:01:15;4.50;;;3.70;;
6255;SDS011;3161;48.794;9.784;2022-11-20T01:03:46;4.40;;;4.00;;
6255;SDS011;3161;48.794;9.784;2022-11-20T01:06:20;4.73;;;3.80;;
6255;SDS011;3161;48.794;9.784;2022-11-20T01:08:45;4.93;;;4.40;;
6255;SDS011;3161;48.794;9.784;2022-11-20T01:11:14;5.57;;;4.13;;
6255;SDS011;3161;48.794;9.784;2022-11-20T01:13:50;5.43;;;3.30;;
6255;SDS011;3161;48.794;9.784;2022-11-20T01:16:20;5.07;;;3.30;;
6255;SDS011;3161;48.794;9.784;2022-11-20T01:18:50;3.80;;;3.50;;
6255;SDS011;3161;48.794;9.784;2022-11-20T01:21:20;4.23;;;3.23;;
6255;SDS011;3161;48.794;9.784;2022-11-20T01:23:49;3.93;;;3.50;;
6255;SDS011;3161;48.794;9.784;2022-11-20T01:26:22;5.63;;;3.53;;
6255;SDS011;3161;48.794;9.784;2022-11-20T01:28:51;5.53;;;3.60;;
6255;SDS011;3161;48.794;9.784;2022-11-20T01:31:24;5.57;;;3.10;;
6255;SDS011;3161;48.794;9.784;2022-11-20T01:33:54;3.47;;;2.83;;
6255;SDS011;3161;48.794;9.784;2022-11-20T01:36:25;3.80;;;3.10;;
6255;SDS011;3161;48.794;9.784;2022-11-20T01:38:54;4.90;;;3.57;;
6255;SDS011;3161;48.794;9.784;2022-11-20T01:41:24;3.00;;;2.80;;
6255;SDS011;3161;48.794;9.784;2022-11-20T01:44:12;5.43;;;3.10;;
6255;SDS011;3161;48.794;9.784;2022-11-20T01:46:52;5.43;;;2.73;;
6255;SDS011;3161;48.794;9.784;2022-11-20T01:49:24;4.43;;;3.03;;
6255;SDS011;3161;48.794;9.784;2022-11-20T01:52:01;6.83;;;3.40;;
6255;SDS011;3161;48.794;9.784;2022-11-20T01:54:39;3.93;;;2.83;;
6255;SDS011;3161;48.794;9.784;2022-11-20T01:57:03;2.73;;;2.53;;
6255;SDS011;3161;48.794;9.784;2022-11-20T01:59:34;2.60;;;2.40;;
6255;SDS011;3161;48.794;9.784;2022-11-20T02:02:05;4.03;;;3.00;;
6255;SDS011;3161;48.794;9.784;2022-11-20T02:04:32;2.90;;;2.70;;
6255;SDS011;3161;48.794;9.784;2022-11-20T02:07:00;4.87;;;3.00;;
6255;SDS011;3161;48.794;9.784;2022-11-20T02:09:30;2.93;;;2.73;;
6255;SDS011;3161;48.794;9.784;2022-11-20T02:11:58;4.33;;;2.77;;
6255;SDS011;3161;48.794;9.784;2022-11-20T02:14:26;4.23;;;2.50;;
6255;SDS011;3161;48.794;9.784;2022-11-20T02:16:55;3.57;;;2.43;;
6255;SDS011;3161;48.794;9.784;2022-11-20T02:19:29;3.87;;;2.80;;
6255;SDS011;3161;48.794;9.784;2022-11-20T02:24:37;3.07;;;2.67;;
6255;SDS011;3161;48.794;9.784;2022-11-20T02:27:12;4.33;;;3.30;;
6255;SDS011;3161;48.794;9.784;2022-11-20T02:32:24;4.47;;;2.70;;
6255;SDS011;3161;48.794;9.784;2022-11-20T02:34:53;3.33;;;2.87;;
6255;SDS011;3161;48.794;9.784;2022-11-20T02:37:22;3.47;;;2.53;;
6255;SDS011;3161;48.794;9.784;2022-11-20T02:39:51;3.13;;;2.80;;
6255;SDS011;3161;48.794;9.784;2022-11-20T02:42:19;5.13;;;2.63;;
6255;SDS011;3161;48.794;9.784;2022-11-20T02:44:47;3.87;;;2.60;;
6255;SDS011;3161;48.794;9.784;2022-11-20T02:47:14;3.50;;;2.77;;
6255;SDS011;3161;48.794;9.784;2022-11-20T02:49:42;4.00;;;3.00;;
6255;SDS011;3161;48.794;9.784;2022-11-20T02:52:09;3.17;;;2.87;;
6255;SDS011;3161;48.794;9.784;2022-11-20T02:54:37;5.93;;;2.60;;
6255;SDS011;3161;48.794;9.784;2022-11-20T02:57:05;2.83;;;2.33;;
6255;SDS011;3161;48.794;9.784;2022-11-20T02:59:33;4.90;;;2.70;;
6255;SDS011;3161;48.794;9.784;2022-11-20T03:02:00;3.00;;;2.50;;
6255;SDS011;3161;48.794;9.784;2022-11-20T03:04:28;3.47;;;2.77;;
6255;SDS011;3161;48.794;9.784;2022-11-20T03:06:55;3.00;;;2.70;;
6255;SDS011;3161;48.794;9.784;2022-11-20T03:09:23;2.73;;;2.40;;
6255;SDS011;3161;48.794;9.784;2022-11-20T03:11:50;3.27;;;2.63;;
6255;SDS011;3161;48.794;9.784;2022-11-20T03:14:18;2.67;;;2.47;;
6255;SDS011;3161;48.794;9.784;2022-11-20T03:16:45;3.43;;;2.70;;
6255;SDS011;3161;48.794;9.784;2022-11-20T03:19:13;3.30;;;2.60;;
6255;SDS011;3161;48.794;9.784;2022-11-20T03:21:40;3.63;;;2.93;;
6255;SDS011;3161;48.794;9.784;2022-11-20T03:24:08;3.47;;;2.70;;
6255;SDS011;3161;48.794;9.784;2022-11-20T03:26:35;4.87;;;2.90;;
6255;SDS011;3161;48.794;9.784;2022-11-20T03:29:03;3.27;;;2.50;;
6255;SDS011;3161;48.794;9.784;2022-11-20T03:31:37;3.00;;;2.73;;
6255;SDS011;3161;48.794;9.784;2022-11-20T03:34:02;3.13;;;2.80;;
6255;SDS011;3161;48.794;9.784;2022-11-20T03:36:30;2.97;;;2.70;;
6255;SDS011;3161;48.794;9.784;2022-11-20T03:38:58;3.10;;;2.20;;
6255;SDS011;3161;48.794;9.784;2022-11-20T03:41:27;4.00;;;2.83;;
6255;SDS011;3161;48.794;9.784;2022-11-20T03:43:57;3.00;;;2.70;;
6255;SDS011;3161;48.794;9.784;2022-11-20T03:46:27;3.97;;;3.07;;
6255;SDS011;3161;48.794;9.784;2022-11-20T03:48:55;4.23;;;3.10;;
6255;SDS011;3161;48.794;9.784;2022-11-20T03:51:24;6.90;;;3.00;;
6255;SDS011;3161;48.794;9.784;2022-11-20T03:53:54;3.90;;;2.50;;
6255;SDS011;3161;48.794;9.784;2022-11-20T03:56:23;2.53;;;2.33;;
6255;SDS011;3161;48.794;9.784;2022-11-20T03:58:55;6.00;;;2.80;;
6255;SDS011;3161;48.794;9.784;2022-11-20T04:01:25;3.63;;;2.67;;
6255;SDS011;3161;48.794;9.784;2022-11-20T04:03:55;3.40;;;3.10;;
6255;SDS011;3161;48.794;9.784;2022-11-20T04:06:24;5.47;;;2.70;;
6255;SDS011;3161;48.794;9.784;2022-11-20T04:08:57;4.80;;;2.50;;
6255;SDS011;3161;48.794;9.784;2022-11-20T04:11:25;3.10;;;2.50;;
6255;SDS011;3161;48.794;9.784;2022-11-20T04:14:03;3.37;;;2.80;;
6255;SDS011;3161;48.794;9.784;2022-11-20T04:16:36;3.37;;;2.17;;
6255;SDS011;3161;48.794;9.784;2022-11-20T04:19:01;3.80;;;2.53;;
6255;SDS011;3161;48.794;9.784;2022-11-20T04:21:30;5.23;;;2.53;;
6255;SDS011;3161;48.794;9.784;2022-11-20T04:23:58;3.40;;;2.53;;
6255;SDS011;3161;48.794;9.784;2022-11-20T04:26:26;3.23;;;2.40;;
6255;SDS011;3161;48.794;9.784;2022-11-20T04:28:55;2.43;;;2.23;;
6255;SDS011;3161;48.794;9.784;2022-11-20T04:31:25;2.70;;;2.50;;
6255;SDS011;3161;48.794;9.784;2022-11-20T04:33:55;2.57;;;2.37;;
6255;SDS011;3161;48.794;9.784;2022-11-20T04:36:24;3.10;;;2.80;;
6255;SDS011;3161;48.794;9.784;2022-11-20T04:38:54;2.93;;;2.10;;
6255;SDS011;3161;48.794;9.784;2022-11-20T04:41:24;4.50;;;2.33;;
6255;SDS011;3161;48.794;9.784;2022-11-20T04:43:53;4.60;;;2.47;;
6255;SDS011;3161;48.794;9.784;2022-11-20T04:46:25;3.93;;;2.87;;
6255;SDS011;3161;48.794;9.784;2022-11-20T04:48:54;3.97;;;2.73;;
6255;SDS011;3161;48.794;9.784;2022-11-20T04:51:21;4.57;;;2.40;;
6255;SDS011;3161;48.794;9.784;2022-11-20T04:53:49;5.37;;;2.50;;
6255;SDS011;3161;48.794;9.784;2022-11-20T04:56:17;3.50;;;2.67;;
6255;SDS011;3161;48.794;9.784;2022-11-20T04:58:45;3.03;;;2.30;;
6255;SDS011;3161;48.794;9.784;2022-11-20T05:01:14;2.83;;;2.50;;
6255;SDS011;3161;48.794;9.784;2022-11-20T05:03:43;2.90;;;2.47;;
6255;SDS011;3161;48.794;9.784;2022-11-20T05:06:12;3.13;;;2.40;;
6255;SDS011;3161;48.794;9.784;2022-11-20T05:08:41;2.27;;;2.10;;
6255;SDS011;3161;48.794;9.784;2022-11-20T05:11:12;3.00;;;2.50;;
6255;SDS011;3161;48.794;9.784;2022-11-20T05:13:45;2.33;;;2.17;;
6255;SDS011;3161;48.794;9.784;2022-11-20T05:16:14;2.87;;;2.57;;
6255;SDS011;3161;48.794;9.784;2022-11-20T05:18:47;2.63;;;2.40;;
6255;SDS011;3161;48.794;9.784;2022-11-20T05:21:15;3.47;;;2.30;;
6255;SDS011;3161;48.794;9.784;2022-11-20T05:23:43;2.50;;;2.10;;
6255;SDS011;3161;48.794;9.784;2022-11-20T05:26:21;2.23;;;2.03;;
6255;SDS011;3161;48.794;9.784;2022-11-20T05:28:43;4.33;;;2.97;;
6255;SDS011;3161;48.794;9.784;2022-11-20T05:31:12;1.90;;;1.80;;
6255;SDS011;3161;48.794;9.784;2022-11-20T05:33:44;4.27;;;2.37;;
6255;SDS011;3161;48.794;9.784;2022-11-20T05:36:12;2.57;;;2.30;;
6255;SDS011;3161;48.794;9.784;2022-11-20T05:38:40;2.07;;;1.87;;
6255;SDS011;3161;48.794;9.784;2022-11-20T05:41:10;1.90;;;1.70;;
6255;SDS011;3161;48.794;9.784;2022-11-20T05:43:39;2.40;;;2.23;;
6255;SDS011;3161;48.794;9.784;2022-11-20T05:46:09;2.03;;;1.93;;
6255;SDS011;3161;48.794;9.784;2022-11-20T05:48:39;2.00;;;1.90;;
6255;SDS011;3161;48.794;9.784;2022-11-20T05:51:08;2.37;;;1.90;;
6255;SDS011;3161;48.794;9.784;2022-11-20T05:53:37;2.37;;;2.23;;
6255;SDS011;3161;48.794;9.784;2022-11-20T05:56:15;4.30;;;2.57;;
6255;SDS011;3161;48.794;9.784;2022-11-20T05:58:48;3.50;;;1.87;;
6255;SDS011;3161;48.794;9.784;2022-11-20T06:01:17;5.00;;;2.27;;
6255;SDS011;3161;48.794;9.784;2022-11-20T06:03:46;2.23;;;1.97;;
6255;SDS011;3161;48.794;9.784;2022-11-20T06:06:16;14.57;;;9.60;;
6255;SDS011;3161;48.794;9.784;2022-11-20T06:08:44;9.03;;;5.80;;
6255;SDS011;3161;48.794;9.784;2022-11-20T06:11:13;20.00;;;9.10;;
6255;SDS011;3161;48.794;9.784;2022-11-20T06:13:42;19.87;;;8.10;;
6255;SDS011;3161;48.794;9.784;2022-11-20T06:16:10;7.77;;;3.17;;
6255;SDS011;3161;48.794;9.784;2022-11-20T06:18:39;4.07;;;2.90;;
6255;SDS011;3161;48.794;9.784;2022-11-20T06:21:07;5.30;;;3.17;;
6255;SDS011;3161;48.794;9.784;2022-11-20T06:23:37;16.03;;;5.33;;
6255;SDS011;3161;48.794;9.784;2022-11-20T06:26:12;12.13;;;5.43;;
6255;SDS011;3161;48.794;9.784;2022-11-20T06:28:41;9.73;;;3.67;;
6255;SDS011;3161;48.794;9.784;2022-11-20T06:31:10;3.83;;;2.93;;
6255;SDS011;3161;48.794;9.784;2022-11-20T06:33:39;3.70;;;2.20;;
6255;SDS011;3161;48.794;9.784;2022-11-20T06:36:07;6.50;;;3.13;;
6255;SDS011;3161;48.794;9.784;2022-11-20T06:38:36;3.73;;;2.17;;
6255;SDS011;3161;48.794;9.784;2022-11-20T06:41:05;4.03;;;2.13;;
6255;SDS011;3161;48.794;9.784;2022-11-20T06:43:34;11.63;;;4.30;;
6255;SDS011;3161;48.794;9.784;2022-11-20T06:46:01;5.70;;;3.30;;
6255;SDS011;3161;48.794;9.784;2022-11-20T06:48:29;7.47;;;4.00;;
6255;SDS011;3161;48.794;9.784;2022-11-20T06:50:57;15.33;;;5.40;;
6255;SDS011;3161;48.794;9.784;2022-11-20T06:53:25;10.97;;;4.93;;
6255;SDS011;3161;48.794;9.784;2022-11-20T06:55:52;6.43;;;3.13;;
6255;SDS011;3161;48.794;9.784;2022-11-20T06:58:23;3.57;;;2.53;;
6255;SDS011;3161;48.794;9.784;2022-11-20T07:00:52;2.83;;;2.10;;
6255;SDS011;3161;48.794;9.784;2022-11-20T07:03:20;2.43;;;1.97;;
6255;SDS011;3161;48.794;9.784;2022-11-20T07:05:47;7.13;;;4.20;;
6255;SDS011;3161;48.794;9.784;2022-11-20T07:08:15;4.17;;;1.90;;
6255;SDS011;3161;48.794;9.784;2022-11-20T07:10:42;4.40;;;2.03;;
6255;SDS011;3161;48.794;9.784;2022-11-20T07:13:10;5.17;;;3.37;;
6255;SDS011;3161;48.794;9.784;2022-11-20T07:15:37;5.50;;;3.20;;
6255;SDS011;3161;48.794;9.784;2022-11-20T07:18:05;3.83;;;2.40;;
6255;SDS011;3161;48.794;9.784;2022-11-20T07:20:33;1.90;;;1.80;;
6255;SDS011;3161;48.794;9.784;2022-11-20T07:23:00;3.27;;;2.37;;
6255;SDS011;3161;48.794;9.784;2022-11-20T07:25:28;1.20;;;1.10;;
6255;SDS011;3161;48.794;9.784;2022-11-20T07:28:01;2.00;;;1.47;;
6255;SDS011;3161;48.794;9.784;2022-11-20T07:30:26;3.37;;;1.40;;
6255;SDS011;3161;48.794;9.784;2022-11-20T07:32:54;4.57;;;1.70;;
6255;SDS011;3161;48.794;9.784;2022-11-20T07:35:28;5.33;;;2.63;;
6255;SDS011;3161;48.794;9.784;2022-11-20T07:40:39;1.97;;;1.67;;
6255;SDS011;3161;48.794;9.784;2022-11-20T07:43:06;3.47;;;2.00;;
6255;SDS011;3161;48.794;9.784;2022-11-20T07:45:34;3.50;;;2.20;;
6255;SDS011;3161;48.794;9.784;2022-11-20T07:48:02;1.63;;;1.37;;
6255;SDS011;3161;48.794;9.784;2022-11-20T07:50:30;1.23;;;1.10;;
6255;SDS011;3161;48.794;9.784;2022-11-20T07:53:05;2.43;;;1.33;;
6255;SDS011;3161;48.794;9.784;2022-11-20T07:55:30;2.03;;;1.60;;
6255;SDS011;3161;48.794;9.784;2022-11-20T07:57:58;1.37;;;1.30;;
6255;SDS011;3161;48.794;9.784;2022-11-20T08:00:26;2.83;;;2.23;;
6255;SDS011;3161;48.794;9.784;2022-11-20T08:02:54;4.13;;;2.60;;
6255;SDS011;3161;48.794;9.784;2022-11-20T08:05:21;5.07;;;3.20;;
6255;SDS011;3161;48.794;9.784;2022-11-20T08:07:49;3.07;;;2.07;;
6255;SDS011;3161;48.794;9.784;2022-11-20T08:10:16;3.77;;;2.23;;
6255;SDS011;3161;48.794;9.784;2022-11-20T08:12:48;2.73;;;2.30;;
6255;SDS011;3161;48.794;9.784;2022-11-20T08:15:35;2.83;;;1.87;;
6255;SDS011;3161;48.794;9.784;2022-11-20T08:18:04;4.67;;;2.07;;
6255;SDS011;3161;48.794;9.784;2022-11-20T08:20:33;1.63;;;1.33;;
6255;SDS011;3161;48.794;9.784;2022-11-20T08:23:02;1.00;;;1.00;;
6255;SDS011;3161;48.794;9.784;2022-11-20T08:25:32;2.57;;;1.40;;
6255;SDS011;3161;48.794;9.784;2022-11-20T08:28:03;1.57;;;1.27;;
6255;SDS011;3161;48.794;9.784;2022-11-20T08:30:32;1.73;;;1.30;;
6255;SDS011;3161;48.794;9.784;2022-11-20T08:33:01;5.73;;;2.30;;
6255;SDS011;3161;48.794;9.784;2022-11-20T08:35:37;2.20;;;2.00;;
6255;SDS011;3161;48.794;9.784;2022-11-20T08:38:06;1.90;;;1.80;;
6255;SDS011;3161;48.794;9.784;2022-11-20T08:40:35;1.67;;;1.57;;
6255;SDS011;3161;48.794;9.784;2022-11-20T08:43:02;1.63;;;1.30;;
6255;SDS011;3161;48.794;9.784;2022-11-20T08:45:30;1.87;;;1.60;;
6255;SDS011;3161;48.794;9.784;2022-11-20T08:48:01;1.20;;;1.10;;
6255;SDS011;3161;48.794;9.784;2022-11-20T08:50:29;1.40;;;1.30;;
6255;SDS011;3161;48.794;9.784;2022-11-20T08:53:04;1.10;;;1.10;;
6255;SDS011;3161;48.794;9.784;2022-11-20T08:55:32;1.40;;;1.30;;
6255;SDS011;3161;48.794;9.784;2022-11-20T08:58:06;1.43;;;1.00;;
6255;SDS011;3161;48.794;9.784;2022-11-20T09:00:31;2.27;;;1.50;;
6255;SDS011;3161;48.794;9.784;2022-11-20T09:02:59;2.33;;;1.50;;
6255;SDS011;3161;48.794;9.784;2022-11-20T09:05:27;2.10;;;1.43;;
6255;SDS011;3161;48.794;9.784;2022-11-20T09:07:58;1.30;;;1.20;;
6255;SDS011;3161;48.794;9.784;2022-11-20T09:10:26;8.37;;;1.90;;
6255;SDS011;3161;48.794;9.784;2022-11-20T09:12:54;2.67;;;1.70;;
6255;SDS011;3161;48.794;9.784;2022-11-20T09:15:22;1.83;;;1.73;;
6255;SDS011;3161;48.794;9.784;2022-11-20T09:17:56;3.13;;;2.13;;
6255;SDS011;3161;48.794;9.784;2022-11-20T09:20:20;1.60;;;1.50;;
6255;SDS011;3161;48.794;9.784;2022-11-20T09:22:48;7.00;;;3.47;;
6255;SDS011;3161;48.794;9.784;2022-11-20T09:25:21;5.17;;;2.43;;
6255;SDS011;3161;48.794;9.784;2022-11-20T09:27:54;4.53;;;2.57;;
6255;SDS011;3161;48.794;9.784;2022-11-20T09:30:22;4.37;;;2.60;;
6255;SDS011;3161;48.794;9.784;2022-11-20T09:32:49;6.10;;;2.47;;
6255;SDS011;3161;48.794;9.784;2022-11-20T09:35:17;12.33;;;5.27;;
6255;SDS011;3161;48.794;9.784;2022-11-20T09:37:45;14.33;;;6.27;;
6255;SDS011;3161;48.794;9.784;2022-11-20T09:40:22;6.97;;;3.70;;
6255;SDS011;3161;48.794;9.784;2022-11-20T09:42:57;10.10;;;5.97;;
6255;SDS011;3161;48.794;9.784;2022-11-20T09:45:37;3.43;;;2.50;;
6255;SDS011;3161;48.794;9.784;2022-11-20T09:48:08;9.27;;;1.60;;
6255;SDS011;3161;48.794;9.784;2022-11-20T09:50:43;2.97;;;2.57;;
6255;SDS011;3161;48.794;9.784;2022-11-20T09:56:14;3.87;;;2.33;;
6255;SDS011;3161;48.794;9.784;2022-11-20T09:58:54;4.27;;;3.37;;
6255;SDS011;3161;48.794;9.784;2022-11-20T10:01:25;12.80;;;6.90;;
6255;SDS011;3161;48.794;9.784;2022-11-20T10:04:03;4.40;;;3.70;;
6255;SDS011;3161;48.794;9.784;2022-11-20T10:06:33;1.60;;;1.17;;
6255;SDS011;3161;48.794;9.784;2022-11-20T10:11:51;2.27;;;1.60;;
6255;SDS011;3161;48.794;9.784;2022-11-20T10:14:26;1.60;;;1.50;;
6255;SDS011;3161;48.794;9.784;2022-11-20T10:20:17;2.83;;;2.53;;
6255;SDS011;3161;48.794;9.784;2022-11-20T10:25:37;1.90;;;1.33;;
6255;SDS011;3161;48.794;9.784;2022-11-20T10:28:23;5.03;;;2.20;;
6255;SDS011;3161;48.794;9.784;2022-11-20T10:31:00;3.90;;;2.47;;
6255;SDS011;3161;48.794;9.784;2022-11-20T10:33:35;1.93;;;1.73;;
6255;SDS011;3161;48.794;9.784;2022-11-20T10:36:05;2.13;;;1.30;;
6255;SDS011;3161;48.794;9.784;2022-11-20T10:38:38;4.17;;;1.20;;
6255;SDS011;3161;48.794;9.784;2022-11-20T10:41:07;2.47;;;2.27;;
6255;SDS011;3161;48.794;9.784;2022-11-20T10:44:00;2.53;;;2.17;;
6255;SDS011;3161;48.794;9.784;2022-11-20T10:46:27;1.20;;;1.10;;
6255;SDS011;3161;48.794;9.784;2022-11-20T10:48:57;1.50;;;1.40;;
6255;SDS011;3161;48.794;9.784;2022-11-20T10:54:08;2.37;;;1.60;;
6255;SDS011;3161;48.794;9.784;2022-11-20T10:56:42;1.60;;;1.50;;
6255;SDS011;3161;48.794;9.784;2022-11-20T10:59:35;1.30;;;1.23;;
6255;SDS011;3161;48.794;9.784;2022-11-20T11:02:14;1.53;;;1.43;;
6255;SDS011;3161;48.794;9.784;2022-11-20T11:04:46;3.20;;;2.30;;
6255;SDS011;3161;48.794;9.784;2022-11-20T11:09:53;1.70;;;1.60;;
6255;SDS011;3161;48.794;9.784;2022-11-20T11:12:24;4.27;;;2.30;;
6255;SDS011;3161;48.794;9.784;2022-11-20T11:14:53;4.00;;;2.80;;
6255;SDS011;3161;48.794;9.784;2022-11-20T11:17:23;5.70;;;3.93;;
6255;SDS011;3161;48.794;9.784;2022-11-20T11:19:59;6.93;;;3.20;;
6255;SDS011;3161;48.794;9.784;2022-11-20T11:22:28;12.87;;;5.60;;
6255;SDS011;3161;48.794;9.784;2022-11-20T11:24:57;11.03;;;3.43;;
6255;SDS011;3161;48.794;9.784;2022-11-20T11:27:25;16.20;;;6.20;;
6255;SDS011;3161;48.794;9.784;2022-11-20T11:30:03;30.73;;;11.83;;
6255;SDS011;3161;48.794;9.784;2022-11-20T11:32:39;13.13;;;4.20;;
6255;SDS011;3161;48.794;9.784;2022-11-20T11:35:18;13.03;;;6.13;;
6255;SDS011;3161;48.794;9.784;2022-11-20T11:37:46;15.20;;;6.60;;
6255;SDS011;3161;48.794;9.784;2022-11-20T11:40:15;1.67;;;1.57;;
6255;SDS011;3161;48.794;9.784;2022-11-20T11:42:51;8.47;;;3.70;;
6255;SDS011;3161;48.794;9.784;2022-11-20T11:45:17;4.90;;;3.07;;
6255;SDS011;3161;48.794;9.784;2022-11-20T11:47:47;9.67;;;5.23;;
6255;SDS011;3161;48.794;9.784;2022-11-20T11:50:18;5.73;;;3.20;;
6255;SDS011;3161;48.794;9.784;2022-11-20T11:55:56;2.23;;;1.40;;
6255;SDS011;3161;48.794;9.784;2022-11-20T12:03:55;1.23;;;1.13;;
6255;SDS011;3161;48.794;9.784;2022-11-20T12:06:44;3.83;;;3.40;;
6255;SDS011;3161;48.794;9.784;2022-11-20T12:09:17;3.40;;;2.57;;
6255;SDS011;3161;48.794;9.784;2022-11-20T12:11:54;2.30;;;2.10;;
6255;SDS011;3161;48.794;9.784;2022-11-20T12:14:43;4.37;;;2.30;;
6255;SDS011;3161;48.794;9.784;2022-11-20T12:17:01;3.97;;;3.07;;
6255;SDS011;3161;48.794;9.784;2022-11-20T12:19:34;2.73;;;2.40;;
6255;SDS011;3161;48.794;9.784;2022-11-20T12:25:04;5.57;;;3.03;;
6255;SDS011;3161;48.794;9.784;2022-11-20T12:27:57;4.57;;;3.13;;
6255;SDS011;3161;48.794;9.784;2022-11-20T12:30:27;1.80;;;1.70;;
6255;SDS011;3161;48.794;9.784;2022-11-20T12:35:47;2.30;;;1.93;;
6255;SDS011;3161;48.794;9.784;2022-11-20T12:38:36;1.37;;;1.27;;
6255;SDS011;3161;48.794;9.784;2022-11-20T12:41:35;1.27;;;1.17;;
6255;SDS011;3161;48.794;9.784;2022-11-20T12:47:28;1.00;;;1.00;;
6255;SDS011;3161;48.794;9.784;2022-11-20T12:53:04;1.10;;;1.00;;
6255;SDS011;3161;48.794;9.784;2022-11-20T13:03:50;1.87;;;1.10;;
6255;SDS011;3161;48.794;9.784;2022-11-20T13:06:20;1.63;;;1.47;;
6255;SDS011;3161;48.794;9.784;2022-11-20T13:08:53;3.63;;;1.47;;
6255;SDS011;3161;48.794;9.784;2022-11-20T13:11:21;1.43;;;1.30;;
6255;SDS011;3161;48.794;9.784;2022-11-20T13:19:25;1.13;;;1.03;;
6255;SDS011;3161;48.794;9.784;2022-11-20T13:21:54;2.30;;;1.10;;
6255;SDS011;3161;48.794;9.784;2022-11-20T13:24:23;3.10;;;2.47;;
6255;SDS011;3161;48.794;9.784;2022-11-20T13:29:42;1.80;;;1.50;;
6255;SDS011;3161;48.794;9.784;2022-11-20T13:32:15;1.63;;;1.53;;
6255;SDS011;3161;48.794;9.784;2022-11-20T13:34:51;3.57;;;1.47;;
6255;SDS011;3161;48.794;9.784;2022-11-20T13:37:31;1.10;;;1.00;;
6255;SDS011;3161;48.794;9.784;2022-11-20T13:45:23;1.57;;;1.10;;
6255;SDS011;3161;48.794;9.784;2022-11-20T13:47:53;2.27;;;1.10;;
6255;SDS011;3161;48.794;9.784;2022-11-20T13:50:24;2.43;;;1.40;;
6255;SDS011;3161;48.794;9.784;2022-11-20T13:53:12;2.10;;;1.63;;
6255;SDS011;3161;48.794;9.784;2022-11-20T13:55:42;3.77;;;1.60;;
6255;SDS011;3161;48.794;9.784;2022-11-20T14:01:21;4.10;;;2.00;;
6255;SDS011;3161;48.794;9.784;2022-11-20T14:03:51;3.57;;;1.73;;
6255;SDS011;3161;48.794;9.784;2022-11-20T14:06:28;2.47;;;1.43;;
6255;SDS011;3161;48.794;9.784;2022-11-20T14:08:57;1.80;;;1.40;;
6255;SDS011;3161;48.794;9.784;2022-11-20T14:11:26;2.97;;;2.00;;
6255;SDS011;3161;48.794;9.784;2022-11-20T14:14:15;2.40;;;1.50;;
6255;SDS011;3161;48.794;9.784;2022-11-20T14:16:45;1.53;;;1.37;;
6255;SDS011;3161;48.794;9.784;2022-11-20T14:21:54;2.23;;;2.00;;
6255;SDS011;3161;48.794;9.784;2022-11-20T14:24:24;5.20;;;3.27;;
6255;SDS011;3161;48.794;9.784;2022-11-20T14:26:53;3.93;;;2.67;;
6255;SDS011;3161;48.794;9.784;2022-11-20T14:29:26;3.17;;;2.03;;
6255;SDS011;3161;48.794;9.784;2022-11-20T14:31:54;3.57;;;2.10;;
6255;SDS011;3161;48.794;9.784;2022-11-20T14:34:29;1.77;;;1.63;;
6255;SDS011;3161;48.794;9.784;2022-11-20T14:36:56;3.43;;;1.40;;
6255;SDS011;3161;48.794;9.784;2022-11-20T14:39:26;2.23;;;1.57;;
6255;SDS011;3161;48.794;9.784;2022-11-20T14:41:57;1.33;;;0.90;;
6255;SDS011;3161;48.794;9.784;2022-11-20T14:44:32;2.93;;;1.57;;
6255;SDS011;3161;48.794;9.784;2022-11-20T14:47:01;2.77;;;0.97;;
6255;SDS011;3161;48.794;9.784;2022-11-20T14:49:31;4.77;;;1.10;;
6255;SDS011;3161;48.794;9.784;2022-11-20T14:51:59;1.07;;;1.00;;
6255;SDS011;3161;48.794;9.784;2022-11-20T14:54:28;2.93;;;1.47;;
6255;SDS011;3161;48.794;9.784;2022-11-20T14:57:02;2.03;;;1.73;;
6255;SDS011;3161;48.794;9.784;2022-11-20T14:59:28;0.97;;;0.97;;
6255;SDS011;3161;48.794;9.784;2022-11-20T15:04:44;1.30;;;0.80;;
6255;SDS011;3161;48.794;9.784;2022-11-20T15:07:24;3.03;;;0.90;;
6255;SDS011;3161;48.794;9.784;2022-11-20T15:10:00;4.53;;;1.80;;
6255;SDS011;3161;48.794;9.784;2022-11-20T15:12:33;3.70;;;1.10;;
6255;SDS011;3161;48.794;9.784;2022-11-20T15:15:03;2.90;;;1.60;;
6255;SDS011;3161;48.794;9.784;2022-11-20T15:17:32;6.30;;;3.20;;
6255;SDS011;3161;48.794;9.784;2022-11-20T15:20:02;11.97;;;4.17;;
6255;SDS011;3161;48.794;9.784;2022-11-20T15:22:33;5.63;;;2.47;;
6255;SDS011;3161;48.794;9.784;2022-11-20T15:25:00;1.97;;;1.50;;
6255;SDS011;3161;48.794;9.784;2022-11-20T15:27:28;1.87;;;1.40;;
6255;SDS011;3161;48.794;9.784;2022-11-20T15:29:55;1.53;;;1.00;;
6255;SDS011;3161;48.794;9.784;2022-11-20T15:32:23;12.83;;;8.03;;
6255;SDS011;3161;48.794;9.784;2022-11-20T15:34:50;4.87;;;3.17;;
6255;SDS011;3161;48.794;9.784;2022-11-20T15:37:18;1.93;;;1.80;;
6255;SDS011;3161;48.794;9.784;2022-11-20T15:39:45;1.97;;;1.47;;
6255;SDS011;3161;48.794;9.784;2022-11-20T15:42:13;2.83;;;1.63;;
6255;SDS011;3161;48.794;9.784;2022-11-20T15:44:40;2.43;;;1.67;;
6255;SDS011;3161;48.794;9.784;2022-11-20T15:47:08;5.30;;;3.30;;
6255;SDS011;3161;48.794;9.784;2022-11-20T15:49:36;10.23;;;7.07;;
6255;SDS011;3161;48.794;9.784;2022-11-20T15:52:03;3.93;;;3.17;;
6255;SDS011;3161;48.794;9.784;2022-11-20T15:54:31;3.47;;;2.20;;
6255;SDS011;3161;48.794;9.784;2022-11-20T15:56:58;3.00;;;2.73;;
6255;SDS011;3161;48.794;9.784;2022-11-20T15:59:28;3.40;;;2.00;;
6255;SDS011;3161;48.794;9.784;2022-11-20T16:01:55;5.90;;;4.03;;
6255;SDS011;3161;48.794;9.784;2022-11-20T16:04:23;4.23;;;2.20;;
6255;SDS011;3161;48.794;9.784;2022-11-20T16:06:50;3.90;;;2.07;;
6255;SDS011;3161;48.794;9.784;2022-11-20T16:09:18;4.57;;;2.40;;
6255;SDS011;3161;48.794;9.784;2022-11-20T16:11:46;4.93;;;2.00;;
6255;SDS011;3161;48.794;9.784;2022-11-20T16:14:13;4.40;;;2.13;;
6255;SDS011;3161;48.794;9.784;2022-11-20T16:16:59;3.50;;;2.27;;
6255;SDS011;3161;48.794;9.784;2022-11-20T16:19:27;2.27;;;2.10;;
6255;SDS011;3161;48.794;9.784;2022-11-20T16:21:54;2.77;;;1.80;;
6255;SDS011;3161;48.794;9.784;2022-11-20T16:24:25;2.40;;;1.70;;
6255;SDS011;3161;48.794;9.784;2022-11-20T16:26:53;2.30;;;2.10;;
6255;SDS011;3161;48.794;9.784;2022-11-20T16:29:21;3.47;;;1.80;;
6255;SDS011;3161;48.794;9.784;2022-11-20T16:31:49;2.40;;;1.50;;
6255;SDS011;3161;48.794;9.784;2022-11-20T16:34:16;3.17;;;2.20;;
6255;SDS011;3161;48.794;9.784;2022-11-20T16:36:44;2.77;;;1.57;;
6255;SDS011;3161;48.794;9.784;2022-11-20T16:39:12;5.00;;;1.70;;
6255;SDS011;3161;48.794;9.784;2022-11-20T16:41:40;7.53;;;4.03;;
6255;SDS011;3161;48.794;9.784;2022-11-20T16:44:08;8.07;;;4.30;;
6255;SDS011;3161;48.794;9.784;2022-11-20T16:46:37;6.50;;;3.90;;
6255;SDS011;3161;48.794;9.784;2022-11-20T16:49:06;4.50;;;2.50;;
6255;SDS011;3161;48.794;9.784;2022-11-20T16:51:35;4.87;;;2.63;;